Time;durP1;ratioP1;P1;durP2;ratioP2;P2;SDS_P1;SDS_P2;PMS_P1;PMS_P2;Temp;Humidity;BMP_temperature;BMP_pressure;BME280_temperature;BME280_humidity;BME280_pressure;Samples;Min_cycle;Max_cycle;Signal;HPM_P1;HPM_P2
2022/10/11 00:00:32;;;;;;;9.23;2.08;;;10.60;99.90;;;;;;4804648;29;20215;-90
2022/10/11 00:02:58;;;;;;;10.55;1.92;;;10.50;99.90;;;;;;4805261;29;20198;-90
2022/10/11 00:05:24;;;;;;;11.35;1.88;;;10.50;99.90;;;;;;4824620;29;20218;-90
2022/10/11 00:07:50;;;;;;;5.38;1.88;;;10.50;99.90;;;;;;4825376;29;20270;-89
2022/10/11 00:10:17;;;;;;;11.05;1.85;;;10.50;99.90;;;;;;4826338;29;20245;-90
2022/10/11 00:12:43;;;;;;;11.57;1.55;;;10.50;99.90;;;;;;4825619;29;20243;-90
2022/10/11 00:15:12;;;;;;;4.72;1.70;;;10.50;99.90;;;;;;4825454;29;20213;-90
2022/10/11 00:17:38;;;;;;;11.02;2.20;;;10.50;99.90;;;;;;4823053;29;20208;-90
2022/10/11 00:20:04;;;;;;;4.93;1.48;;;10.50;99.90;;;;;;4825221;29;20320;-90
2022/10/11 00:22:30;;;;;;;10.02;2.10;;;10.50;99.90;;;;;;4825153;29;20190;-90
2022/10/11 00:24:57;;;;;;;10.27;1.95;;;10.40;99.90;;;;;;4824750;29;20206;-90
2022/10/11 00:27:23;;;;;;;6.78;1.77;;;10.40;99.90;;;;;;4807251;29;20255;-90
2022/10/11 00:29:49;;;;;;;9.10;1.40;;;10.50;99.90;;;;;;4807200;29;20235;-89
2022/10/11 00:32:15;;;;;;;6.45;1.90;;;10.40;99.90;;;;;;4806369;29;20223;-89
2022/10/11 00:34:41;;;;;;;8.85;1.67;;;10.30;99.90;;;;;;4806586;29;20589;-90
2022/10/11 00:37:07;;;;;;;13.77;1.73;;;10.30;99.90;;;;;;4806882;29;20640;-90
2022/10/11 00:39:33;;;;;;;9.68;1.80;;;10.30;99.90;;;;;;4806646;29;20544;-90
2022/10/11 00:41:59;;;;;;;10.70;1.77;;;10.20;99.90;;;;;;4806832;29;20178;-90
2022/10/11 00:44:28;;;;;;;10.43;2.42;;;10.20;99.90;;;;;;4806078;29;20234;-90
2022/10/11 00:46:58;;;;;;;9.80;2.10;;;10.20;99.90;;;;;;4813513;29;20220;-89
2022/10/11 00:49:41;;;;;;;11.15;1.88;;;10.20;99.90;;;;;;4824812;29;20177;-90
2022/10/11 00:52:21;;;;;;;13.90;3.05;;;10.10;99.90;;;;;;4824606;29;20252;-89
2022/10/11 00:54:48;;;;;;;5.85;1.30;;;10.10;99.90;;;;;;4824418;29;20174;-90
2022/10/11 00:57:20;;;;;;;10.68;1.67;;;10.10;99.90;;;;;;4824474;29;20170;-89
2022/10/11 00:59:51;;;;;;;7.72;1.60;;;10.00;99.90;;;;;;4824422;29;20337;-89
2022/10/11 01:02:18;;;;;;;11.32;1.92;;;10.10;99.90;;;;;;4807500;29;20539;-89
2022/10/11 01:04:44;;;;;;;8.00;1.52;;;10.00;99.90;;;;;;4806744;29;20171;-89
2022/10/11 01:07:10;;;;;;;8.75;1.70;;;10.00;99.90;;;;;;4807702;29;20190;-90
2022/10/11 01:09:36;;;;;;;6.53;1.90;;;10.00;99.90;;;;;;4806454;29;20180;-89
2022/10/11 01:12:09;;;;;;;10.85;1.90;;;10.00;99.90;;;;;;4806812;29;20666;-90
2022/10/11 01:14:50;;;;;;;7.88;1.58;;;9.90;99.90;;;;;;4806774;29;20197;-89
2022/10/11 01:17:42;;;;;;;7.97;1.80;;;9.90;99.90;;;;;;4816347;29;20200;-90
2022/10/11 01:20:40;;;;;;;11.23;1.95;;;9.90;99.90;;;;;;4823072;29;20226;-90
2022/10/11 01:23:34;;;;;;;11.60;2.25;;;9.80;99.90;;;;;;4824580;29;20182;-90
2022/10/11 01:26:37;;;;;;;10.63;2.00;;;9.80;99.90;;;;;;4824900;29;20210;-89
2022/10/11 01:29:25;;;;;;;8.20;2.15;;;9.80;99.90;;;;;;4824607;29;20192;-89
2022/10/11 01:32:15;;;;;;;9.13;1.85;;;9.70;99.90;;;;;;4812765;29;20187;-89
2022/10/11 01:34:56;;;;;;;10.45;2.13;;;9.80;99.90;;;;;;4806668;29;20175;-90
2022/10/11 01:37:29;;;;;;;10.23;2.03;;;9.80;99.90;;;;;;4821446;29;20250;-89
2022/10/11 01:42:31;;;;;;;8.18;1.77;;;9.70;99.90;;;;;;5010500;24;20332;-91
2022/10/11 01:44:58;;;;;;;11.18;2.00;;;9.70;99.90;;;;;;4799384;29;20198;-90
2022/10/11 01:47:25;;;;;;;11.32;1.55;;;9.70;99.90;;;;;;4826613;29;20258;-93
2022/10/11 01:49:59;;;;;;;16.13;2.00;;;9.70;99.90;;;;;;4811261;29;20190;-91
2022/10/11 01:52:42;;;;;;;9.80;2.08;;;9.70;99.90;;;;;;4811649;29;20186;-92
2022/10/11 01:55:34;;;;;;;12.73;2.00;;;9.70;99.90;;;;;;4827840;29;20182;-92
2022/10/11 01:58:13;;;;;;;6.55;1.45;;;9.60;99.90;;;;;;4811205;29;20209;-92
2022/10/11 02:00:55;;;;;;;8.82;1.95;;;9.60;99.90;;;;;;4828031;29;20209;-92
2022/10/11 02:03:41;;;;;;;10.88;1.88;;;9.60;99.90;;;;;;4811382;29;20189;-91
2022/10/11 02:06:43;;;;;;;16.67;2.03;;;9.60;99.90;;;;;;4811636;29;20193;-94
2022/10/11 02:09:18;;;;;;;8.23;1.88;;;9.50;99.90;;;;;;4811826;29;20192;-92
2022/10/11 02:11:44;;;;;;;10.32;1.73;;;9.40;99.90;;;;;;4810337;29;20185;-91
2022/10/11 02:14:22;;;;;;;9.52;1.60;;;9.40;99.90;;;;;;4810216;29;20246;-92
2022/10/11 02:17:06;;;;;;;9.00;1.50;;;9.40;99.90;;;;;;4810702;29;20250;-92
2022/10/11 02:19:38;;;;;;;7.32;1.38;;;9.40;99.90;;;;;;4810543;29;20421;-91
2022/10/11 02:22:11;;;;;;;5.32;1.63;;;9.40;99.90;;;;;;4810918;29;20216;-92
2022/10/11 02:24:39;;;;;;;9.15;1.70;;;9.40;99.90;;;;;;4827134;29;20249;-92
2022/10/11 02:27:06;;;;;;;10.00;1.98;;;9.40;99.90;;;;;;4811045;29;20194;-93
2022/10/11 02:29:36;;;;;;;8.85;1.80;;;9.30;99.90;;;;;;4811022;29;20287;-92
2022/10/11 02:32:03;;;;;;;6.82;1.70;;;9.30;99.90;;;;;;4810468;29;20198;-92
2022/10/11 02:34:38;;;;;;;10.85;1.73;;;9.30;99.90;;;;;;4810832;29;20186;-93
2022/10/11 02:37:21;;;;;;;8.05;1.92;;;9.30;99.90;;;;;;4810940;29;20181;-91
2022/10/11 02:39:59;;;;;;;6.78;1.60;;;9.30;99.90;;;;;;4827123;29;20269;-92
2022/10/11 02:42:47;;;;;;;8.02;2.10;;;9.20;99.90;;;;;;4810376;29;20237;-92
2022/10/11 02:45:26;;;;;;;5.75;1.67;;;9.20;99.90;;;;;;4827005;29;20530;-91
2022/10/11 02:47:52;;;;;;;6.85;1.60;;;9.20;99.90;;;;;;4810465;29;20334;-93
2022/10/11 02:50:20;;;;;;;14.77;1.85;;;9.20;99.90;;;;;;4810665;29;20632;-92
2022/10/11 02:53:00;;;;;;;9.32;1.75;;;9.10;99.90;;;;;;4819553;29;20625;-90
2022/10/11 02:55:26;;;;;;;9.27;1.77;;;9.10;99.90;;;;;;4828809;29;20204;-92
2022/10/11 02:57:51;;;;;;;8.57;1.80;;;9.00;99.90;;;;;;4828839;29;20189;-92
2022/10/11 03:00:17;;;;;;;10.90;1.98;;;9.10;99.90;;;;;;4828462;29;20563;-93
2022/10/11 03:02:44;;;;;;;8.88;1.75;;;9.00;99.90;;;;;;4831938;29;20257;-91
2022/10/11 03:05:10;;;;;;;6.85;1.40;;;9.00;99.90;;;;;;4810366;29;20606;-91
2022/10/11 03:07:35;;;;;;;10.55;1.88;;;9.00;99.90;;;;;;4810530;29;20679;-93
2022/10/11 03:10:01;;;;;;;12.05;1.73;;;9.00;99.90;;;;;;4826620;29;20243;-92
2022/10/11 03:12:27;;;;;;;6.55;1.15;;;9.00;99.90;;;;;;4826739;29;20528;-92
2022/10/11 03:14:54;;;;;;;5.57;1.63;;;9.00;99.90;;;;;;4810296;29;20247;-92
2022/10/11 03:17:20;;;;;;;6.38;1.35;;;8.90;99.90;;;;;;4809713;29;20197;-93
2022/10/11 03:19:46;;;;;;;6.70;1.20;;;8.90;99.90;;;;;;4810268;29;20229;-96
2022/10/11 03:22:12;;;;;;;11.63;1.65;;;8.90;99.90;;;;;;4810204;29;20185;-93
2022/10/11 03:24:38;;;;;;;8.00;1.67;;;8.80;99.90;;;;;;4810150;29;20509;-93
2022/10/11 03:27:04;;;;;;;8.38;1.60;;;8.80;99.90;;;;;;4810161;29;20186;-94
2022/10/11 03:29:30;;;;;;;7.43;1.85;;;8.80;99.90;;;;;;4810038;29;20695;-92
2022/10/11 03:31:56;;;;;;;11.07;1.73;;;8.70;99.90;;;;;;4809801;29;20228;-93
2022/10/11 03:34:24;;;;;;;6.70;1.60;;;8.70;99.90;;;;;;4810316;29;20532;-91
2022/10/11 03:36:50;;;;;;;4.57;1.33;;;8.70;99.90;;;;;;4810262;29;20182;-94
2022/10/11 03:39:16;;;;;;;6.72;1.65;;;8.70;99.90;;;;;;4810051;29;20230;-93
2022/10/11 03:41:41;;;;;;;10.23;1.90;;;8.70;99.90;;;;;;4806635;29;20286;-92
2022/10/11 03:44:07;;;;;;;7.97;1.33;;;8.60;99.90;;;;;;4807166;29;20186;-93
2022/10/11 03:46:33;;;;;;;13.60;1.65;;;8.60;99.90;;;;;;4806842;29;20183;-93
2022/10/11 03:48:58;;;;;;;12.55;1.95;;;8.70;99.90;;;;;;4807087;29;20190;-91
2022/10/11 03:51:25;;;;;;;10.80;1.80;;;8.60;99.90;;;;;;4806955;29;20183;-93
2022/10/11 03:53:51;;;;;;;7.03;1.30;;;8.60;99.90;;;;;;4807001;29;20285;-92
2022/10/11 03:56:17;;;;;;;14.77;2.00;;;8.60;99.90;;;;;;4807067;29;20240;-93
2022/10/11 03:58:43;;;;;;;10.85;1.80;;;8.60;99.90;;;;;;4806756;29;20186;-94
2022/10/11 04:01:08;;;;;;;9.33;1.47;;;8.60;99.90;;;;;;4806910;29;20226;-93
2022/10/11 04:03:48;;;;;;;9.13;1.67;;;8.60;99.90;;;;;;4806320;29;20183;-95
2022/10/11 04:06:14;;;;;;;8.05;1.70;;;8.60;99.90;;;;;;4806735;29;20190;-93
2022/10/11 04:08:40;;;;;;;8.75;1.42;;;8.50;99.90;;;;;;4806966;29;20187;-93
2022/10/11 04:11:06;;;;;;;7.35;1.95;;;8.60;99.90;;;;;;4807880;29;20190;-92
2022/10/11 04:13:31;;;;;;;11.32;1.60;;;8.60;99.90;;;;;;4806631;29;20183;-91
2022/10/11 04:15:59;;;;;;;9.57;1.40;;;8.60;99.90;;;;;;4807561;29;20218;-91
2022/10/11 04:18:24;;;;;;;10.37;1.67;;;8.60;99.90;;;;;;4806292;29;20274;-92
2022/10/11 04:20:50;;;;;;;10.93;1.80;;;8.60;99.90;;;;;;4806653;29;20297;-94
2022/10/11 04:23:16;;;;;;;12.57;1.97;;;8.60;99.90;;;;;;4806669;29;20186;-93
2022/10/11 04:25:44;;;;;;;6.45;1.58;;;8.60;99.90;;;;;;4806487;29;20226;-92
2022/10/11 04:28:09;;;;;;;14.10;1.70;;;8.60;99.90;;;;;;4806555;29;20187;-92
2022/10/11 04:30:35;;;;;;;11.20;1.92;;;8.60;99.90;;;;;;4806602;29;20199;-92
2022/10/11 04:33:01;;;;;;;6.95;1.88;;;8.60;99.90;;;;;;4824130;29;20688;-93
2022/10/11 04:35:33;;;;;;;9.57;2.03;;;8.50;99.90;;;;;;4807834;29;20190;-91
2022/10/11 04:38:00;;;;;;;15.10;1.53;;;8.50;99.90;;;;;;4813043;29;20665;-93
2022/10/11 04:40:25;;;;;;;9.30;1.80;;;8.40;99.90;;;;;;4817629;29;20217;-92
2022/10/11 04:42:52;;;;;;;11.33;1.73;;;8.50;99.90;;;;;;4810525;29;20230;-92
2022/10/11 04:45:20;;;;;;;9.68;2.03;;;8.40;99.90;;;;;;4810155;29;20271;-92
2022/10/11 04:47:47;;;;;;;9.73;1.73;;;8.40;99.90;;;;;;4809260;29;20654;-92
2022/10/11 04:50:13;;;;;;;9.53;1.77;;;8.40;99.90;;;;;;4810717;29;20578;-91
2022/10/11 04:52:38;;;;;;;9.57;2.35;;;8.30;99.90;;;;;;4810696;29;20239;-91
2022/10/11 04:55:06;;;;;;;13.90;1.90;;;8.30;99.90;;;;;;4809689;29;20243;-93
2022/10/11 04:57:32;;;;;;;7.87;1.67;;;8.30;99.90;;;;;;4809242;29;20197;-92
2022/10/11 04:59:58;;;;;;;8.77;2.10;;;8.20;99.90;;;;;;4809501;29;20222;-93
2022/10/11 05:02:23;;;;;;;10.68;2.03;;;8.20;99.90;;;;;;4808994;29;20214;-92
2022/10/11 05:04:51;;;;;;;8.63;2.07;;;8.30;99.90;;;;;;4809763;29;20508;-92
2022/10/11 05:07:17;;;;;;;12.07;1.70;;;8.20;99.90;;;;;;4810659;29;20174;-92
2022/10/11 05:09:43;;;;;;;5.90;2.03;;;8.20;99.90;;;;;;4812130;29;20209;-92
2022/10/11 05:12:08;;;;;;;5.83;1.77;;;8.30;99.90;;;;;;4826657;29;20211;-92
2022/10/11 05:14:34;;;;;;;7.43;2.10;;;8.20;99.90;;;;;;4826279;29;20251;-91
2022/10/11 05:17:00;;;;;;;7.70;2.08;;;8.20;99.90;;;;;;4826250;29;20194;-92
2022/10/11 05:19:26;;;;;;;10.30;2.13;;;8.20;99.90;;;;;;4826071;29;20216;-92
2022/10/11 05:21:51;;;;;;;8.17;2.40;;;8.20;99.90;;;;;;4826165;29;20198;-91
2022/10/11 05:24:17;;;;;;;9.97;1.90;;;8.20;99.90;;;;;;4826259;29;20178;-92
2022/10/11 05:26:42;;;;;;;9.63;2.33;;;8.20;99.90;;;;;;4826317;29;20219;-92
2022/10/11 05:29:08;;;;;;;9.80;2.70;;;8.10;99.90;;;;;;4826398;29;20170;-91
2022/10/11 05:31:34;;;;;;;9.83;2.60;;;8.10;99.90;;;;;;4814825;29;20191;-91
2022/10/11 05:33:59;;;;;;;9.73;2.63;;;8.10;99.90;;;;;;4807946;29;20611;-91
2022/10/11 05:36:25;;;;;;;9.50;2.70;;;8.10;99.90;;;;;;4808289;29;20954;-92
2022/10/11 05:38:51;;;;;;;9.25;3.08;;;8.10;99.90;;;;;;4808315;29;20195;-93
2022/10/11 05:41:16;;;;;;;11.70;2.60;;;8.10;99.90;;;;;;4815194;29;20233;-92
2022/10/11 05:43:43;;;;;;;11.73;3.30;;;8.20;99.90;;;;;;4807720;29;20710;-92
2022/10/11 05:46:09;;;;;;;10.47;2.70;;;8.10;99.90;;;;;;4807898;29;20239;-92
2022/10/11 05:48:35;;;;;;;12.53;3.00;;;8.10;99.90;;;;;;4808738;29;20179;-92
2022/10/11 05:51:04;;;;;;;12.23;3.07;;;8.10;99.90;;;;;;4808099;29;20191;-92
2022/10/11 05:53:30;;;;;;;11.23;3.40;;;8.10;99.90;;;;;;4807321;29;20618;-91
2022/10/11 05:55:56;;;;;;;11.17;2.83;;;8.00;99.90;;;;;;4806935;29;20539;-91
2022/10/11 05:58:21;;;;;;;10.50;3.07;;;8.00;99.90;;;;;;4807419;29;20197;-92
2022/10/11 06:00:47;;;;;;;6.88;3.00;;;8.00;99.90;;;;;;4807926;29;20229;-92
2022/10/11 06:03:13;;;;;;;7.40;2.80;;;8.00;99.90;;;;;;4806764;29;20195;-92
2022/10/11 06:05:39;;;;;;;13.23;3.50;;;8.10;99.90;;;;;;4807466;29;20186;-92
2022/10/11 06:08:07;;;;;;;12.93;3.50;;;8.10;99.90;;;;;;4807710;29;20278;-90
2022/10/11 06:10:33;;;;;;;10.47;3.03;;;8.00;99.90;;;;;;4807133;29;20199;-91
2022/10/11 06:12:59;;;;;;;8.73;2.90;;;8.00;99.90;;;;;;4808501;29;20202;-91
2022/10/11 06:15:25;;;;;;;11.90;3.00;;;8.10;99.90;;;;;;4807207;29;20225;-91
2022/10/11 06:17:51;;;;;;;10.73;3.50;;;8.10;99.90;;;;;;4808313;29;20624;-90
2022/10/11 06:20:17;;;;;;;8.73;2.57;;;8.10;99.90;;;;;;4806970;29;20237;-91
2022/10/11 06:22:43;;;;;;;12.63;2.97;;;8.10;99.90;;;;;;4807005;29;20638;-91
2022/10/11 06:25:09;;;;;;;10.17;3.13;;;8.20;99.90;;;;;;4806702;29;20340;-92
2022/10/11 06:27:35;;;;;;;12.77;3.20;;;8.20;99.90;;;;;;4805932;29;20190;-91
2022/10/11 06:30:00;;;;;;;11.40;3.10;;;8.30;99.90;;;;;;4804865;29;20194;-93
2022/10/11 06:32:26;;;;;;;7.78;2.80;;;8.30;99.90;;;;;;4789091;30;20181;-91
2022/10/11 06:34:52;;;;;;;10.63;3.00;;;8.30;99.90;;;;;;4788650;30;20187;-90
2022/10/11 06:37:18;;;;;;;11.73;2.77;;;8.30;99.90;;;;;;4788773;30;20186;-92
2022/10/11 06:39:44;;;;;;;13.43;3.20;;;8.40;99.90;;;;;;4807739;29;20224;-92
2022/10/11 06:42:10;;;;;;;12.13;3.10;;;8.40;99.90;;;;;;4806344;29;20613;-93
2022/10/11 06:44:36;;;;;;;12.57;2.50;;;8.40;99.90;;;;;;4807271;29;20257;-94
2022/10/11 06:47:02;;;;;;;12.32;3.00;;;8.50;99.90;;;;;;4806821;29;20226;-92
2022/10/11 06:49:28;;;;;;;11.15;2.55;;;8.60;99.90;;;;;;4809868;29;20206;-92
2022/10/11 06:51:56;;;;;;;9.75;2.72;;;8.60;99.90;;;;;;4814296;29;20215;-92
2022/10/11 06:54:22;;;;;;;12.57;2.85;;;8.60;99.90;;;;;;4808642;29;20179;-92
2022/10/11 06:56:48;;;;;;;11.35;3.05;;;8.60;99.90;;;;;;4806114;29;20183;-92
2022/10/11 06:59:14;;;;;;;12.98;2.97;;;8.70;99.90;;;;;;4806872;29;20183;-91
2022/10/11 07:01:40;;;;;;;11.43;2.67;;;8.70;99.90;;;;;;4806571;29;20247;-94
2022/10/11 07:04:07;;;;;;;10.55;2.80;;;8.70;99.90;;;;;;4806391;29;20273;-93
2022/10/11 07:06:37;;;;;;;7.00;2.67;;;8.90;99.90;;;;;;4807673;29;20187;-93
2022/10/11 07:09:03;;;;;;;19.17;3.30;;;8.90;99.90;;;;;;4824139;29;20214;-91
2022/10/11 07:11:29;;;;;;;16.38;3.08;;;8.90;99.90;;;;;;4824958;29;20232;-93
2022/10/11 07:14:00;;;;;;;8.65;2.25;;;9.00;99.90;;;;;;4824202;29;20314;-94
2022/10/11 07:16:27;;;;;;;11.45;2.92;;;9.10;99.90;;;;;;4819035;29;20222;-93
2022/10/11 07:19:04;;;;;;;8.60;2.70;;;9.10;99.90;;;;;;4805562;29;20201;-93
2022/10/11 07:21:32;;;;;;;13.93;2.83;;;9.20;99.90;;;;;;4806070;29;20206;-93
2022/10/11 07:23:58;;;;;;;21.02;2.78;;;9.20;99.90;;;;;;4806070;29;20293;-95
2022/10/11 07:26:24;;;;;;;13.05;2.40;;;9.30;99.90;;;;;;4805482;29;20619;-95
2022/10/11 07:28:50;;;;;;;16.05;2.47;;;9.40;99.90;;;;;;4805597;29;20249;-94
2022/10/11 07:31:20;;;;;;;18.45;2.97;;;9.40;99.90;;;;;;4805593;29;20533;-93
2022/10/11 07:33:46;;;;;;;18.10;2.63;;;9.60;99.90;;;;;;4805797;29;20190;-93
2022/10/11 07:36:13;;;;;;;14.50;2.58;;;9.60;99.90;;;;;;4806112;29;20187;-93
2022/10/11 07:38:43;;;;;;;12.00;2.45;;;9.70;99.90;;;;;;4807138;29;20183;-94
2022/10/11 07:41:09;;;;;;;7.22;1.95;;;9.70;99.90;;;;;;4826175;29;20237;-93
2022/10/11 07:43:36;;;;;;;10.45;2.38;;;9.70;99.90;;;;;;4830302;29;20182;-92
2022/10/11 07:46:03;;;;;;;9.45;3.08;;;9.80;99.90;;;;;;4824335;29;20209;-96
2022/10/11 07:48:35;;;;;;;10.13;2.30;;;9.80;99.90;;;;;;4824210;29;20595;-94
2022/10/11 07:51:06;;;;;;;12.88;2.53;;;9.90;99.90;;;;;;4824397;29;20702;-93
2022/10/11 07:53:36;;;;;;;9.52;2.30;;;9.90;99.90;;;;;;4825064;29;20253;-93
2022/10/11 07:56:02;;;;;;;10.00;2.00;;;10.00;99.90;;;;;;4824238;29;20190;-94
2022/10/11 07:58:28;;;;;;;14.50;2.63;;;10.10;99.90;;;;;;4824549;29;20271;-93
2022/10/11 08:00:54;;;;;;;10.40;2.20;;;10.20;99.90;;;;;;4825572;29;20213;-90
2022/10/11 08:03:19;;;;;;;11.50;2.70;;;10.20;99.90;;;;;;4843024;29;20178;-92
2022/10/11 08:05:45;;;;;;;12.63;2.60;;;10.30;99.90;;;;;;4808540;29;20232;-91
2022/10/11 08:08:10;;;;;;;6.70;2.28;;;10.30;99.90;;;;;;4808856;29;20502;-92
2022/10/11 08:10:38;;;;;;;12.60;2.60;;;10.40;99.90;;;;;;4808937;29;20610;-91
2022/10/11 08:13:04;;;;;;;7.97;1.90;;;10.40;99.90;;;;;;4808715;29;20243;-91
2022/10/11 08:15:30;;;;;;;10.93;2.58;;;10.40;99.90;;;;;;4808984;29;20194;-94
2022/10/11 08:17:55;;;;;;;8.38;2.28;;;10.50;99.90;;;;;;4809898;29;20261;-94
2022/10/11 08:20:21;;;;;;;13.13;3.05;;;10.50;99.90;;;;;;4812491;29;20224;-91
2022/10/11 08:22:46;;;;;;;11.57;2.40;;;10.60;99.90;;;;;;4812547;29;20190;-92
2022/10/11 08:25:12;;;;;;;12.32;2.33;;;10.70;99.90;;;;;;4812310;29;20193;-94
2022/10/11 08:27:38;;;;;;;17.90;1.98;;;10.70;99.90;;;;;;4812992;29;20185;-95
2022/10/11 08:30:04;;;;;;;11.80;2.35;;;10.70;99.90;;;;;;4812713;29;20178;-93
2022/10/11 08:32:30;;;;;;;18.02;3.03;;;10.80;99.90;;;;;;4811521;29;20278;-95
2022/10/11 08:34:56;;;;;;;10.00;2.85;;;10.80;99.90;;;;;;4811880;29;20217;-93
2022/10/11 08:37:21;;;;;;;9.02;2.00;;;10.90;99.90;;;;;;4827056;29;20185;-93
2022/10/11 08:39:47;;;;;;;10.13;2.10;;;10.90;99.90;;;;;;4826743;29;20225;-94
2022/10/11 08:42:22;;;;;;;12.05;2.70;;;11.00;99.90;;;;;;4820095;29;20248;-92
2022/10/11 08:44:55;;;;;;;10.10;2.17;;;11.10;99.90;;;;;;4812096;29;20272;-96
2022/10/11 08:47:38;;;;;;;12.45;2.00;;;11.20;99.90;;;;;;4811815;29;20186;-93
2022/10/11 08:50:06;;;;;;;11.65;2.33;;;11.20;99.90;;;;;;4812206;29;20526;-94
2022/10/11 08:52:49;;;;;;;11.07;1.98;;;11.20;99.90;;;;;;4812102;29;20574;-95
2022/10/11 08:55:42;;;;;;;7.22;2.13;;;11.30;99.90;;;;;;4827744;29;20268;-96
2022/10/11 08:58:14;;;;;;;12.32;2.50;;;11.40;99.90;;;;;;4811133;29;20698;-95
2022/10/11 09:00:40;;;;;;;9.68;2.00;;;11.40;99.90;;;;;;4818945;29;20217;-92
2022/10/11 09:03:34;;;;;;;11.52;2.03;;;11.50;99.90;;;;;;4816362;29;20196;-94
2022/10/11 09:06:10;;;;;;;11.88;2.03;;;11.50;99.90;;;;;;4821029;29;20289;-95
2022/10/11 09:08:48;;;;;;;9.77;2.05;;;11.60;99.90;;;;;;4829140;29;20224;-94
2022/10/11 09:11:39;;;;;;;13.82;2.15;;;11.60;99.90;;;;;;4816191;29;20230;-95
2022/10/11 09:14:31;;;;;;;10.38;1.92;;;11.70;99.90;;;;;;4847235;29;20202;-96
2022/10/11 09:17:06;;;;;;;10.18;2.20;;;11.80;99.90;;;;;;4846347;29;20208;-96
2022/10/11 09:19:58;;;;;;;7.97;1.45;;;11.90;99.90;;;;;;4829897;29;20177;-96
2022/10/11 09:22:32;;;;;;;12.02;1.88;;;11.90;99.90;;;;;;4820992;29;20273;-94
2022/10/11 09:25:00;;;;;;;16.08;2.60;;;12.00;99.90;;;;;;4829681;29;20185;-95
2022/10/11 09:27:44;;;;;;;7.35;1.95;;;12.10;99.90;;;;;;4834460;29;20194;-93
2022/10/11 09:30:13;;;;;;;6.95;1.60;;;12.10;99.90;;;;;;4816588;29;20174;-95
2022/10/11 09:32:42;;;;;;;11.30;2.25;;;12.10;99.90;;;;;;4817983;29;20264;-96
2022/10/11 09:35:16;;;;;;;15.68;2.50;;;12.20;99.90;;;;;;4822548;29;20513;-95
2022/10/11 09:37:59;;;;;;;12.35;2.03;;;12.30;99.90;;;;;;4816637;29;20182;-93
2022/10/11 09:40:34;;;;;;;10.82;2.20;;;12.30;99.90;;;;;;4811433;29;20217;-94
2022/10/11 09:42:59;;;;;;;10.73;1.85;;;12.40;99.90;;;;;;4811252;29;20284;-94
2022/10/11 09:45:25;;;;;;;10.77;1.90;;;12.40;99.90;;;;;;4810679;29;20308;-94
2022/10/11 09:47:55;;;;;;;10.73;1.73;;;12.40;99.90;;;;;;4811145;29;20190;-93
2022/10/11 09:50:28;;;;;;;7.57;1.40;;;12.60;99.90;;;;;;4811050;29;20189;-96
2022/10/11 09:52:59;;;;;;;8.57;1.63;;;12.60;99.90;;;;;;4810978;29;20189;-93
2022/10/11 09:55:33;;;;;;;10.15;1.83;;;12.70;99.90;;;;;;4827269;29;20178;-96
2022/10/11 09:58:00;;;;;;;8.45;1.55;;;12.70;99.90;;;;;;4810900;29;20208;-93
2022/10/11 10:00:28;;;;;;;8.30;1.55;;;12.70;99.90;;;;;;4815427;29;20216;-95
2022/10/11 10:02:56;;;;;;;11.45;1.85;;;12.80;99.90;;;;;;4828676;29;20326;-95
2022/10/11 10:05:24;;;;;;;10.40;2.67;;;12.80;99.90;;;;;;4832990;29;20213;-92
2022/10/11 10:08:23;;;;;;;7.90;1.65;;;12.90;99.90;;;;;;4812608;29;20193;-96
2022/10/11 10:10:55;;;;;;;13.50;1.83;;;13.00;99.90;;;;;;4790956;29;20194;-96
2022/10/11 10:13:28;;;;;;;10.65;1.80;;;13.10;99.90;;;;;;4811030;29;20186;-96
2022/10/11 10:15:57;;;;;;;12.35;1.60;;;13.20;99.90;;;;;;4826371;29;20170;-94
2022/10/11 10:18:32;;;;;;;8.18;2.13;;;13.20;99.90;;;;;;4811459;29;20189;-94
2022/10/11 10:20:58;;;;;;;9.93;1.88;;;13.20;99.90;;;;;;4810931;29;20213;-95
2022/10/11 10:23:30;;;;;;;7.65;1.50;;;13.30;99.90;;;;;;4826460;29;20186;-96
2022/10/11 10:26:13;;;;;;;9.32;1.65;;;13.50;99.90;;;;;;4826787;29;20192;-95
2022/10/11 10:28:57;;;;;;;7.65;1.60;;;13.50;99.90;;;;;;4827924;29;20174;-96
2022/10/11 10:31:47;;;;;;;14.30;1.85;;;13.70;99.90;;;;;;4821018;29;20181;-94
2022/10/11 10:34:22;;;;;;;6.78;1.50;;;13.80;99.90;;;;;;4800156;29;20212;-94
2022/10/11 10:50:26;;;;;;;11.88;1.80;;;13.90;99.90;;;;;;3888854;29;20236;-93
2022/10/11 10:53:22;;;;;;;10.43;1.83;;;14.00;99.90;;;;;;4827742;29;20215;-94
2022/10/11 10:56:17;;;;;;;8.68;1.85;;;14.10;99.90;;;;;;4828085;29;20220;-95
2022/10/11 10:59:15;;;;;;;7.40;1.73;;;14.20;99.90;;;;;;4825495;29;20201;-91
2022/10/11 11:02:07;;;;;;;9.25;1.90;;;14.30;99.90;;;;;;4833581;29;20221;-93
2022/10/11 11:04:34;;;;;;;10.82;1.52;;;14.50;99.90;;;;;;4802400;29;20198;-92
2022/10/11 11:07:18;;;;;;;7.53;1.40;;;14.70;99.90;;;;;;4842714;29;20647;-93
2022/10/11 11:10:10;;;;;;;8.13;1.55;;;14.70;99.90;;;;;;4837372;29;20496;-93
2022/10/11 11:12:42;;;;;;;15.52;2.08;;;14.60;99.90;;;;;;4825913;29;20174;-91
2022/10/11 11:15:07;;;;;;;7.80;1.83;;;14.70;99.90;;;;;;4825727;29;20209;-92
2022/10/11 11:17:48;;;;;;;7.85;1.33;;;14.80;99.90;;;;;;4809713;29;20626;-92
2022/10/11 11:20:30;;;;;;;8.82;1.55;;;15.00;99.90;;;;;;4825931;29;20297;-93
2022/10/11 11:23:05;;;;;;;8.45;1.70;;;15.00;99.90;;;;;;4810836;29;20626;-91
2022/10/11 11:25:49;;;;;;;8.85;1.45;;;14.90;99.90;;;;;;4832903;29;20189;-93
2022/10/11 11:28:30;;;;;;;9.20;1.45;;;14.80;99.90;;;;;;4843328;29;20261;-93
2022/10/11 11:31:08;;;;;;;6.43;1.50;;;14.60;99.90;;;;;;4839780;29;20182;-92
2022/10/11 11:34:04;;;;;;;7.22;1.42;;;14.40;99.90;;;;;;4809275;29;20246;-94
2022/10/11 11:36:46;;;;;;;7.97;1.23;;;14.40;99.90;;;;;;4809207;29;20182;-92
2022/10/11 11:39:23;;;;;;;12.82;1.70;;;14.30;99.90;;;;;;4809480;29;20173;-91
2022/10/11 11:42:21;;;;;;;5.13;1.52;;;14.40;99.90;;;;;;4825646;29;20273;-95
2022/10/11 11:44:48;;;;;;;10.60;1.90;;;14.50;99.90;;;;;;4825482;29;20169;-93
2022/10/11 11:47:28;;;;;;;13.15;2.25;;;14.60;99.90;;;;;;4840428;29;20614;-95
2022/10/11 11:49:58;;;;;;;7.25;1.40;;;14.60;99.90;;;;;;4824361;29;20267;-95
2022/10/11 11:52:27;;;;;;;8.52;1.40;;;14.50;99.90;;;;;;4827159;29;20176;-94
2022/10/11 11:55:19;;;;;;;14.00;1.95;;;14.30;99.90;;;;;;4829217;29;20186;-95
2022/10/11 11:58:10;;;;;;;10.20;1.40;;;14.10;99.90;;;;;;4828141;29;20284;-95
2022/10/11 12:01:05;;;;;;;4.05;1.50;;;14.00;99.90;;;;;;4826382;29;20221;-94
2022/10/11 12:03:40;;;;;;;13.93;1.92;;;14.10;99.90;;;;;;4803610;29;20186;-93
2022/10/11 12:06:21;;;;;;;5.55;1.42;;;14.20;99.90;;;;;;4810909;29;20194;-95
2022/10/11 12:09:00;;;;;;;8.55;1.40;;;14.40;99.90;;;;;;4811882;29;20187;-94
2022/10/11 12:11:29;;;;;;;8.27;1.50;;;14.70;99.90;;;;;;4809450;29;20186;-94
2022/10/11 12:13:56;;;;;;;9.63;1.40;;;15.00;99.90;;;;;;4808939;29;20186;-92
2022/10/11 12:16:22;;;;;;;8.98;1.17;;;15.00;99.90;;;;;;4809438;29;20195;-91
2022/10/11 12:19:01;;;;;;;9.43;1.77;;;15.00;99.90;;;;;;4810363;29;20247;-92
2022/10/11 12:21:38;;;;;;;6.82;1.23;;;14.90;99.90;;;;;;4810557;29;20210;-92
2022/10/11 12:24:11;;;;;;;6.88;1.40;;;14.70;99.90;;;;;;4809412;29;20182;-91
2022/10/11 12:26:38;;;;;;;9.80;1.70;;;14.60;99.90;;;;;;4809328;29;20190;-90
2022/10/11 12:29:17;;;;;;;11.93;1.52;;;14.50;99.90;;;;;;4809190;29;20186;-94
2022/10/11 12:31:47;;;;;;;10.27;1.48;;;14.50;99.90;;;;;;4808988;29;20232;-93
2022/10/11 12:34:18;;;;;;;8.50;1.60;;;14.40;99.90;;;;;;4809410;29;20183;-92
2022/10/11 12:36:49;;;;;;;12.80;1.80;;;14.30;99.90;;;;;;4809809;29;20549;-91
2022/10/11 12:39:18;;;;;;;7.55;1.65;;;14.20;99.90;;;;;;4812125;29;20687;-92
2022/10/11 12:41:48;;;;;;;7.65;1.20;;;14.20;99.90;;;;;;4822718;29;20245;-92
2022/10/11 12:44:17;;;;;;;6.18;1.38;;;14.10;99.90;;;;;;4826806;29;20646;-94
2022/10/11 12:46:49;;;;;;;10.65;1.30;;;14.00;99.90;;;;;;4826857;29;20289;-92
2022/10/11 12:49:31;;;;;;;8.00;1.25;;;14.00;99.90;;;;;;4829472;29;20221;-94
2022/10/11 12:52:22;;;;;;;10.18;1.58;;;13.90;99.90;;;;;;4846459;29;20173;-95
2022/10/11 12:55:22;;;;;;;5.90;1.50;;;14.00;99.90;;;;;;4837786;29;20193;-93
2022/10/11 12:58:04;;;;;;;8.77;1.70;;;14.10;99.90;;;;;;4830110;29;20200;-94
2022/10/11 13:00:50;;;;;;;10.15;1.75;;;14.20;99.90;;;;;;4842151;29;20209;-93
2022/10/11 13:03:51;;;;;;;8.52;1.58;;;14.30;99.90;;;;;;4801640;29;20197;-95
2022/10/11 13:06:32;;;;;;;5.00;1.55;;;14.50;99.90;;;;;;4800117;29;20361;-95
2022/10/11 13:09:10;;;;;;;8.52;1.48;;;14.60;99.90;;;;;;4824255;29;20273;-92
2022/10/11 13:11:43;;;;;;;8.85;1.42;;;14.80;99.90;;;;;;4847020;29;20180;-90
2022/10/11 13:14:19;;;;;;;10.98;1.67;;;14.90;99.90;;;;;;4830513;29;20260;-93
2022/10/11 13:17:02;;;;;;;7.07;1.35;;;14.90;99.90;;;;;;4830379;29;20642;-91
2022/10/11 13:19:34;;;;;;;8.90;1.60;;;14.90;99.90;;;;;;4830168;29;20185;-94
2022/10/11 13:22:32;;;;;;;7.95;1.50;;;14.80;99.90;;;;;;4815600;29;20588;-93
2022/10/11 13:24:58;;;;;;;4.45;1.42;;;14.60;99.90;;;;;;4845218;29;20197;-93
2022/10/11 13:27:26;;;;;;;4.18;1.30;;;14.50;99.90;;;;;;4830137;29;20274;-91